sensor_id;sensor_type;location;lat;lon;timestamp;P1;durP1;ratioP1;P2;durP2;ratioP2
55784;SDS011;41709;52.536;5.688;2024-01-06T00:01:02;16.98;;;11.50;;
55784;SDS011;41709;52.536;5.688;2024-01-06T00:03:28;18.27;;;13.20;;
55784;SDS011;41709;52.536;5.688;2024-01-06T00:05:53;17.67;;;11.80;;
55784;SDS011;41709;52.536;5.688;2024-01-06T00:08:19;18.65;;;12.20;;
55784;SDS011;41709;52.536;5.688;2024-01-06T00:10:44;17.60;;;12.98;;
55784;SDS011;41709;52.536;5.688;2024-01-06T00:13:10;18.08;;;12.95;;
55784;SDS011;41709;52.536;5.688;2024-01-06T00:15:35;21.90;;;13.77;;
55784;SDS011;41709;52.536;5.688;2024-01-06T00:18:01;19.52;;;13.45;;
55784;SDS011;41709;52.536;5.688;2024-01-06T00:20:27;20.00;;;13.55;;
55784;SDS011;41709;52.536;5.688;2024-01-06T00:22:52;18.75;;;13.65;;
55784;SDS011;41709;52.536;5.688;2024-01-06T00:25:18;21.17;;;14.48;;
55784;SDS011;41709;52.536;5.688;2024-01-06T00:27:44;20.50;;;14.18;;
55784;SDS011;41709;52.536;5.688;2024-01-06T00:30:09;21.13;;;14.32;;
55784;SDS011;41709;52.536;5.688;2024-01-06T00:32:35;21.95;;;15.35;;
55784;SDS011;41709;52.536;5.688;2024-01-06T00:35:01;18.48;;;13.95;;
55784;SDS011;41709;52.536;5.688;2024-01-06T00:37:27;22.67;;;14.93;;
55784;SDS011;41709;52.536;5.688;2024-01-06T00:39:52;20.92;;;14.88;;
55784;SDS011;41709;52.536;5.688;2024-01-06T00:42:18;21.95;;;15.05;;
55784;SDS011;41709;52.536;5.688;2024-01-06T00:44:43;23.92;;;15.18;;
55784;SDS011;41709;52.536;5.688;2024-01-06T00:47:10;21.08;;;15.05;;
55784;SDS011;41709;52.536;5.688;2024-01-06T00:49:36;20.85;;;14.93;;
55784;SDS011;41709;52.536;5.688;2024-01-06T00:52:01;23.55;;;16.17;;
55784;SDS011;41709;52.536;5.688;2024-01-06T00:54:27;25.25;;;15.68;;
55784;SDS011;41709;52.536;5.688;2024-01-06T00:56:52;22.20;;;15.63;;
55784;SDS011;41709;52.536;5.688;2024-01-06T00:59:18;22.13;;;16.10;;
55784;SDS011;41709;52.536;5.688;2024-01-06T01:01:43;23.58;;;16.30;;
55784;SDS011;41709;52.536;5.688;2024-01-06T01:04:09;23.80;;;17.13;;
55784;SDS011;41709;52.536;5.688;2024-01-06T01:06:36;24.38;;;17.35;;
55784;SDS011;41709;52.536;5.688;2024-01-06T01:09:02;23.90;;;17.33;;
55784;SDS011;41709;52.536;5.688;2024-01-06T01:11:29;27.17;;;17.98;;
55784;SDS011;41709;52.536;5.688;2024-01-06T01:13:55;24.48;;;17.80;;
55784;SDS011;41709;52.536;5.688;2024-01-06T01:16:20;27.80;;;17.80;;
55784;SDS011;41709;52.536;5.688;2024-01-06T01:18:46;28.75;;;18.90;;
55784;SDS011;41709;52.536;5.688;2024-01-06T01:21:11;26.00;;;17.92;;
55784;SDS011;41709;52.536;5.688;2024-01-06T01:23:37;27.88;;;18.70;;
55784;SDS011;41709;52.536;5.688;2024-01-06T01:26:03;26.10;;;18.60;;
55784;SDS011;41709;52.536;5.688;2024-01-06T01:28:28;33.17;;;18.98;;
55784;SDS011;41709;52.536;5.688;2024-01-06T01:30:54;27.70;;;18.65;;
55784;SDS011;41709;52.536;5.688;2024-01-06T01:33:19;25.55;;;18.30;;
55784;SDS011;41709;52.536;5.688;2024-01-06T01:35:45;26.50;;;18.77;;
55784;SDS011;41709;52.536;5.688;2024-01-06T01:38:10;32.67;;;20.20;;
55784;SDS011;41709;52.536;5.688;2024-01-06T01:40:36;26.85;;;18.55;;
55784;SDS011;41709;52.536;5.688;2024-01-06T01:43:01;24.92;;;17.42;;
55784;SDS011;41709;52.536;5.688;2024-01-06T01:45:27;29.23;;;19.10;;
55784;SDS011;41709;52.536;5.688;2024-01-06T01:47:52;23.58;;;17.40;;
55784;SDS011;41709;52.536;5.688;2024-01-06T01:50:18;25.92;;;17.65;;
55784;SDS011;41709;52.536;5.688;2024-01-06T01:52:45;24.92;;;17.17;;
55784;SDS011;41709;52.536;5.688;2024-01-06T01:55:11;25.55;;;17.83;;
55784;SDS011;41709;52.536;5.688;2024-01-06T01:57:36;25.02;;;16.30;;
55784;SDS011;41709;52.536;5.688;2024-01-06T02:00:03;21.02;;;15.73;;
55784;SDS011;41709;52.536;5.688;2024-01-06T02:02:29;22.67;;;15.90;;
55784;SDS011;41709;52.536;5.688;2024-01-06T02:04:55;20.58;;;15.43;;
55784;SDS011;41709;52.536;5.688;2024-01-06T02:07:21;20.15;;;14.90;;
55784;SDS011;41709;52.536;5.688;2024-01-06T02:09:46;19.50;;;14.43;;
55784;SDS011;41709;52.536;5.688;2024-01-06T02:12:12;21.05;;;15.25;;
55784;SDS011;41709;52.536;5.688;2024-01-06T02:14:38;19.40;;;14.82;;
55784;SDS011;41709;52.536;5.688;2024-01-06T02:17:03;19.35;;;14.43;;
55784;SDS011;41709;52.536;5.688;2024-01-06T02:19:29;20.50;;;14.05;;
55784;SDS011;41709;52.536;5.688;2024-01-06T02:21:54;17.92;;;13.85;;
55784;SDS011;41709;52.536;5.688;2024-01-06T02:24:20;17.13;;;12.32;;
55784;SDS011;41709;52.536;5.688;2024-01-06T02:26:46;17.40;;;12.65;;
55784;SDS011;41709;52.536;5.688;2024-01-06T02:29:12;17.83;;;11.43;;
55784;SDS011;41709;52.536;5.688;2024-01-06T02:31:37;17.20;;;12.55;;
55784;SDS011;41709;52.536;5.688;2024-01-06T02:34:03;16.60;;;11.80;;
55784;SDS011;41709;52.536;5.688;2024-01-06T02:36:28;14.55;;;10.98;;
55784;SDS011;41709;52.536;5.688;2024-01-06T02:38:54;15.23;;;10.48;;
55784;SDS011;41709;52.536;5.688;2024-01-06T02:41:19;13.32;;;9.82;;
55784;SDS011;41709;52.536;5.688;2024-01-06T02:43:46;14.93;;;10.55;;
55784;SDS011;41709;52.536;5.688;2024-01-06T02:46:11;16.70;;;10.60;;
55784;SDS011;41709;52.536;5.688;2024-01-06T02:48:37;13.35;;;9.38;;
55784;SDS011;41709;52.536;5.688;2024-01-06T02:51:03;13.30;;;9.65;;
55784;SDS011;41709;52.536;5.688;2024-01-06T02:53:28;14.18;;;9.35;;
55784;SDS011;41709;52.536;5.688;2024-01-06T02:55:54;14.30;;;9.43;;
55784;SDS011;41709;52.536;5.688;2024-01-06T02:58:19;13.55;;;9.98;;
55784;SDS011;41709;52.536;5.688;2024-01-06T03:00:45;10.02;;;8.02;;
55784;SDS011;41709;52.536;5.688;2024-01-06T03:03:10;14.30;;;9.88;;
55784;SDS011;41709;52.536;5.688;2024-01-06T03:05:36;13.20;;;9.52;;
55784;SDS011;41709;52.536;5.688;2024-01-06T03:08:02;13.95;;;9.30;;
55784;SDS011;41709;52.536;5.688;2024-01-06T03:10:28;15.55;;;10.20;;
55784;SDS011;41709;52.536;5.688;2024-01-06T03:12:54;15.90;;;10.63;;
55784;SDS011;41709;52.536;5.688;2024-01-06T03:15:19;14.70;;;10.20;;
55784;SDS011;41709;52.536;5.688;2024-01-06T03:17:45;15.32;;;10.27;;
55784;SDS011;41709;52.536;5.688;2024-01-06T03:20:10;13.68;;;10.43;;
55784;SDS011;41709;52.536;5.688;2024-01-06T03:22:36;13.32;;;9.73;;
55784;SDS011;41709;52.536;5.688;2024-01-06T03:25:03;12.02;;;9.45;;
55784;SDS011;41709;52.536;5.688;2024-01-06T03:27:29;12.63;;;9.13;;
55784;SDS011;41709;52.536;5.688;2024-01-06T03:29:54;11.95;;;9.13;;
55784;SDS011;41709;52.536;5.688;2024-01-06T03:32:20;12.65;;;8.93;;
55784;SDS011;41709;52.536;5.688;2024-01-06T03:34:46;15.35;;;8.77;;
55784;SDS011;41709;52.536;5.688;2024-01-06T03:37:12;12.15;;;8.60;;
55784;SDS011;41709;52.536;5.688;2024-01-06T03:39:37;12.25;;;8.15;;
55784;SDS011;41709;52.536;5.688;2024-01-06T03:42:03;11.25;;;7.35;;
55784;SDS011;41709;52.536;5.688;2024-01-06T03:44:29;10.02;;;7.68;;
55784;SDS011;41709;52.536;5.688;2024-01-06T03:46:56;10.38;;;7.22;;
55784;SDS011;41709;52.536;5.688;2024-01-06T03:49:22;9.18;;;6.97;;
55784;SDS011;41709;52.536;5.688;2024-01-06T03:51:51;9.55;;;6.93;;
55784;SDS011;41709;52.536;5.688;2024-01-06T03:54:17;9.32;;;7.50;;
55784;SDS011;41709;52.536;5.688;2024-01-06T03:56:42;9.13;;;6.60;;
55784;SDS011;41709;52.536;5.688;2024-01-06T03:59:08;9.93;;;7.45;;
55784;SDS011;41709;52.536;5.688;2024-01-06T04:01:34;10.52;;;6.88;;
55784;SDS011;41709;52.536;5.688;2024-01-06T04:04:03;8.73;;;7.78;;
55784;SDS011;41709;52.536;5.688;2024-01-06T04:06:29;8.57;;;7.13;;
55784;SDS011;41709;52.536;5.688;2024-01-06T04:08:57;11.68;;;8.40;;
55784;SDS011;41709;52.536;5.688;2024-01-06T04:11:22;10.43;;;7.82;;
55784;SDS011;41709;52.536;5.688;2024-01-06T04:13:48;9.63;;;7.57;;
55784;SDS011;41709;52.536;5.688;2024-01-06T04:16:14;11.63;;;7.97;;
55784;SDS011;41709;52.536;5.688;2024-01-06T04:18:39;10.95;;;7.18;;
55784;SDS011;41709;52.536;5.688;2024-01-06T04:21:05;10.95;;;7.97;;
55784;SDS011;41709;52.536;5.688;2024-01-06T04:23:31;10.18;;;7.38;;
55784;SDS011;41709;52.536;5.688;2024-01-06T04:25:56;10.10;;;7.57;;
55784;SDS011;41709;52.536;5.688;2024-01-06T04:28:22;11.07;;;7.40;;
55784;SDS011;41709;52.536;5.688;2024-01-06T04:30:48;9.77;;;7.28;;
55784;SDS011;41709;52.536;5.688;2024-01-06T04:33:13;11.60;;;7.72;;
55784;SDS011;41709;52.536;5.688;2024-01-06T04:35:39;11.15;;;8.18;;
55784;SDS011;41709;52.536;5.688;2024-01-06T04:38:05;10.85;;;7.95;;
55784;SDS011;41709;52.536;5.688;2024-01-06T04:40:30;9.80;;;8.20;;
55784;SDS011;41709;52.536;5.688;2024-01-06T04:42:56;11.63;;;8.60;;
55784;SDS011;41709;52.536;5.688;2024-01-06T04:45:21;10.27;;;8.02;;
55784;SDS011;41709;52.536;5.688;2024-01-06T04:47:49;9.35;;;7.25;;
55784;SDS011;41709;52.536;5.688;2024-01-06T04:50:15;10.85;;;8.00;;
55784;SDS011;41709;52.536;5.688;2024-01-06T04:52:41;10.98;;;8.27;;
55784;SDS011;41709;52.536;5.688;2024-01-06T04:55:06;12.30;;;8.02;;
55784;SDS011;41709;52.536;5.688;2024-01-06T04:57:32;10.55;;;7.50;;
55784;SDS011;41709;52.536;5.688;2024-01-06T04:59:58;11.23;;;7.93;;
55784;SDS011;41709;52.536;5.688;2024-01-06T05:02:24;8.23;;;6.72;;
55784;SDS011;41709;52.536;5.688;2024-01-06T05:04:50;10.77;;;7.25;;
55784;SDS011;41709;52.536;5.688;2024-01-06T05:07:16;9.82;;;6.65;;
55784;SDS011;41709;52.536;5.688;2024-01-06T05:09:41;8.52;;;6.60;;
55784;SDS011;41709;52.536;5.688;2024-01-06T05:12:07;9.27;;;6.35;;
55784;SDS011;41709;52.536;5.688;2024-01-06T05:14:33;7.97;;;6.07;;
55784;SDS011;41709;52.536;5.688;2024-01-06T05:16:59;6.72;;;5.82;;
55784;SDS011;41709;52.536;5.688;2024-01-06T05:19:24;9.15;;;7.00;;
55784;SDS011;41709;52.536;5.688;2024-01-06T05:21:50;10.75;;;7.50;;
55784;SDS011;41709;52.536;5.688;2024-01-06T05:24:15;10.88;;;7.30;;
55784;SDS011;41709;52.536;5.688;2024-01-06T05:26:41;8.00;;;6.30;;
55784;SDS011;41709;52.536;5.688;2024-01-06T05:29:07;10.70;;;6.65;;
55784;SDS011;41709;52.536;5.688;2024-01-06T05:31:32;10.82;;;7.90;;
55784;SDS011;41709;52.536;5.688;2024-01-06T05:33:58;12.35;;;7.38;;
55784;SDS011;41709;52.536;5.688;2024-01-06T05:36:24;10.65;;;7.93;;
55784;SDS011;41709;52.536;5.688;2024-01-06T05:38:50;10.23;;;7.78;;
55784;SDS011;41709;52.536;5.688;2024-01-06T05:41:15;10.57;;;7.68;;
55784;SDS011;41709;52.536;5.688;2024-01-06T05:43:41;11.88;;;7.80;;
55784;SDS011;41709;52.536;5.688;2024-01-06T05:46:07;9.75;;;6.88;;
55784;SDS011;41709;52.536;5.688;2024-01-06T05:48:32;11.73;;;8.00;;
55784;SDS011;41709;52.536;5.688;2024-01-06T05:50:58;11.02;;;7.72;;
55784;SDS011;41709;52.536;5.688;2024-01-06T05:53:23;12.65;;;8.15;;
55784;SDS011;41709;52.536;5.688;2024-01-06T05:55:49;11.10;;;7.57;;
55784;SDS011;41709;52.536;5.688;2024-01-06T05:58:15;10.20;;;7.97;;
55784;SDS011;41709;52.536;5.688;2024-01-06T06:00:41;11.50;;;8.15;;
55784;SDS011;41709;52.536;5.688;2024-01-06T06:03:06;10.93;;;7.97;;
55784;SDS011;41709;52.536;5.688;2024-01-06T06:05:32;10.32;;;7.22;;
55784;SDS011;41709;52.536;5.688;2024-01-06T06:07:58;10.07;;;7.05;;
55784;SDS011;41709;52.536;5.688;2024-01-06T06:10:23;13.20;;;7.57;;
55784;SDS011;41709;52.536;5.688;2024-01-06T06:12:55;9.75;;;6.78;;
55784;SDS011;41709;52.536;5.688;2024-01-06T06:15:20;9.57;;;6.57;;
55784;SDS011;41709;52.536;5.688;2024-01-06T06:17:46;9.40;;;6.72;;
55784;SDS011;41709;52.536;5.688;2024-01-06T06:20:11;8.13;;;6.45;;
55784;SDS011;41709;52.536;5.688;2024-01-06T06:22:37;9.32;;;6.47;;
55784;SDS011;41709;52.536;5.688;2024-01-06T06:25:03;9.75;;;6.22;;
55784;SDS011;41709;52.536;5.688;2024-01-06T06:27:28;10.73;;;7.15;;
55784;SDS011;41709;52.536;5.688;2024-01-06T06:29:54;10.15;;;6.68;;
55784;SDS011;41709;52.536;5.688;2024-01-06T06:34:50;8.50;;;6.68;;
55784;SDS011;41709;52.536;5.688;2024-01-06T06:37:15;12.25;;;8.13;;
55784;SDS011;41709;52.536;5.688;2024-01-06T06:39:41;10.65;;;7.75;;
55784;SDS011;41709;52.536;5.688;2024-01-06T06:42:09;11.85;;;6.97;;
55784;SDS011;41709;52.536;5.688;2024-01-06T06:44:34;12.10;;;8.00;;
55784;SDS011;41709;52.536;5.688;2024-01-06T06:47:00;10.60;;;7.20;;
55784;SDS011;41709;52.536;5.688;2024-01-06T06:49:26;10.93;;;7.60;;
55784;SDS011;41709;52.536;5.688;2024-01-06T06:51:51;10.68;;;7.57;;
55784;SDS011;41709;52.536;5.688;2024-01-06T06:54:17;11.85;;;8.05;;
55784;SDS011;41709;52.536;5.688;2024-01-06T06:56:42;13.15;;;8.10;;
55784;SDS011;41709;52.536;5.688;2024-01-06T06:59:08;10.10;;;7.10;;
55784;SDS011;41709;52.536;5.688;2024-01-06T07:01:34;16.02;;;7.20;;
55784;SDS011;41709;52.536;5.688;2024-01-06T07:04:00;9.07;;;6.78;;
55784;SDS011;41709;52.536;5.688;2024-01-06T07:06:29;10.48;;;6.85;;
55784;SDS011;41709;52.536;5.688;2024-01-06T07:08:55;7.85;;;5.90;;
55784;SDS011;41709;52.536;5.688;2024-01-06T07:11:21;8.93;;;6.13;;
55784;SDS011;41709;52.536;5.688;2024-01-06T07:13:47;11.40;;;7.07;;
55784;SDS011;41709;52.536;5.688;2024-01-06T07:16:12;8.65;;;6.30;;
55784;SDS011;41709;52.536;5.688;2024-01-06T07:18:38;9.52;;;6.57;;
55784;SDS011;41709;52.536;5.688;2024-01-06T07:21:04;11.40;;;6.50;;
55784;SDS011;41709;52.536;5.688;2024-01-06T07:23:31;11.95;;;7.07;;
55784;SDS011;41709;52.536;5.688;2024-01-06T07:25:57;9.52;;;7.03;;
55784;SDS011;41709;52.536;5.688;2024-01-06T07:28:23;10.07;;;6.60;;
55784;SDS011;41709;52.536;5.688;2024-01-06T07:30:49;9.18;;;5.80;;
55784;SDS011;41709;52.536;5.688;2024-01-06T07:33:14;8.80;;;6.65;;
55784;SDS011;41709;52.536;5.688;2024-01-06T07:35:40;9.80;;;6.80;;
55784;SDS011;41709;52.536;5.688;2024-01-06T07:38:08;9.27;;;7.25;;
55784;SDS011;41709;52.536;5.688;2024-01-06T07:40:35;10.95;;;6.82;;
55784;SDS011;41709;52.536;5.688;2024-01-06T07:43:01;11.93;;;7.03;;
55784;SDS011;41709;52.536;5.688;2024-01-06T07:45:27;10.07;;;7.07;;
55784;SDS011;41709;52.536;5.688;2024-01-06T07:47:52;11.20;;;7.30;;
55784;SDS011;41709;52.536;5.688;2024-01-06T07:50:18;9.82;;;7.03;;
55784;SDS011;41709;52.536;5.688;2024-01-06T07:52:43;9.93;;;6.78;;
55784;SDS011;41709;52.536;5.688;2024-01-06T07:55:09;10.65;;;7.28;;
55784;SDS011;41709;52.536;5.688;2024-01-06T07:57:34;8.05;;;6.82;;
55784;SDS011;41709;52.536;5.688;2024-01-06T08:00:00;10.57;;;6.82;;
55784;SDS011;41709;52.536;5.688;2024-01-06T08:02:25;9.63;;;6.43;;
55784;SDS011;41709;52.536;5.688;2024-01-06T08:04:51;11.90;;;7.15;;
55784;SDS011;41709;52.536;5.688;2024-01-06T08:07:17;12.23;;;7.00;;
55784;SDS011;41709;52.536;5.688;2024-01-06T08:09:43;10.80;;;6.90;;
55784;SDS011;41709;52.536;5.688;2024-01-06T08:12:08;9.90;;;7.80;;
55784;SDS011;41709;52.536;5.688;2024-01-06T08:14:35;10.23;;;7.22;;
55784;SDS011;41709;52.536;5.688;2024-01-06T08:17:00;11.52;;;6.50;;
55784;SDS011;41709;52.536;5.688;2024-01-06T08:19:26;11.55;;;7.07;;
55784;SDS011;41709;52.536;5.688;2024-01-06T08:21:53;11.70;;;7.07;;
55784;SDS011;41709;52.536;5.688;2024-01-06T08:24:19;11.23;;;6.82;;
55784;SDS011;41709;52.536;5.688;2024-01-06T08:26:44;13.45;;;7.13;;
55784;SDS011;41709;52.536;5.688;2024-01-06T08:29:10;10.48;;;7.22;;
55784;SDS011;41709;52.536;5.688;2024-01-06T08:31:35;9.85;;;7.50;;
55784;SDS011;41709;52.536;5.688;2024-01-06T08:34:01;9.60;;;6.40;;
55784;SDS011;41709;52.536;5.688;2024-01-06T08:36:26;10.50;;;7.07;;
55784;SDS011;41709;52.536;5.688;2024-01-06T08:38:52;8.65;;;6.57;;
55784;SDS011;41709;52.536;5.688;2024-01-06T08:41:17;10.70;;;6.78;;
55784;SDS011;41709;52.536;5.688;2024-01-06T08:43:43;9.43;;;6.90;;
55784;SDS011;41709;52.536;5.688;2024-01-06T08:46:08;9.68;;;6.88;;
55784;SDS011;41709;52.536;5.688;2024-01-06T08:48:34;10.20;;;7.18;;
55784;SDS011;41709;52.536;5.688;2024-01-06T08:51:00;10.82;;;7.45;;
55784;SDS011;41709;52.536;5.688;2024-01-06T08:53:25;11.18;;;7.30;;
55784;SDS011;41709;52.536;5.688;2024-01-06T08:55:51;11.57;;;7.85;;
55784;SDS011;41709;52.536;5.688;2024-01-06T08:58:16;10.48;;;6.93;;
55784;SDS011;41709;52.536;5.688;2024-01-06T09:00:42;9.75;;;6.55;;
55784;SDS011;41709;52.536;5.688;2024-01-06T09:03:08;13.88;;;7.28;;
55784;SDS011;41709;52.536;5.688;2024-01-06T09:05:34;11.90;;;8.05;;
55784;SDS011;41709;52.536;5.688;2024-01-06T09:08:00;11.13;;;7.50;;
55784;SDS011;41709;52.536;5.688;2024-01-06T09:10:26;9.63;;;7.00;;
55784;SDS011;41709;52.536;5.688;2024-01-06T09:12:51;12.48;;;7.22;;
55784;SDS011;41709;52.536;5.688;2024-01-06T09:15:17;10.88;;;7.75;;
55784;SDS011;41709;52.536;5.688;2024-01-06T09:17:42;10.43;;;7.40;;
55784;SDS011;41709;52.536;5.688;2024-01-06T09:20:08;10.35;;;7.30;;
55784;SDS011;41709;52.536;5.688;2024-01-06T09:22:34;10.10;;;7.53;;
55784;SDS011;41709;52.536;5.688;2024-01-06T09:24:59;10.25;;;7.68;;
55784;SDS011;41709;52.536;5.688;2024-01-06T09:27:25;9.80;;;7.22;;
55784;SDS011;41709;52.536;5.688;2024-01-06T09:29:50;10.48;;;7.10;;
55784;SDS011;41709;52.536;5.688;2024-01-06T09:32:16;10.00;;;7.47;;
55784;SDS011;41709;52.536;5.688;2024-01-06T09:34:42;17.63;;;8.02;;
55784;SDS011;41709;52.536;5.688;2024-01-06T09:37:07;10.98;;;7.38;;
55784;SDS011;41709;52.536;5.688;2024-01-06T09:39:33;9.70;;;7.47;;
55784;SDS011;41709;52.536;5.688;2024-01-06T09:41:58;11.52;;;7.20;;
55784;SDS011;41709;52.536;5.688;2024-01-06T09:44:24;11.27;;;7.60;;
55784;SDS011;41709;52.536;5.688;2024-01-06T09:46:50;11.52;;;7.15;;
55784;SDS011;41709;52.536;5.688;2024-01-06T09:49:19;10.07;;;7.30;;
55784;SDS011;41709;52.536;5.688;2024-01-06T09:51:48;12.23;;;7.68;;
55784;SDS011;41709;52.536;5.688;2024-01-06T09:54:16;10.77;;;7.05;;
55784;SDS011;41709;52.536;5.688;2024-01-06T09:56:47;12.60;;;7.40;;
55784;SDS011;41709;52.536;5.688;2024-01-06T09:59:14;11.25;;;7.22;;
55784;SDS011;41709;52.536;5.688;2024-01-06T10:01:40;11.45;;;7.25;;
55784;SDS011;41709;52.536;5.688;2024-01-06T10:04:06;13.50;;;8.02;;
55784;SDS011;41709;52.536;5.688;2024-01-06T10:06:32;11.50;;;6.95;;
55784;SDS011;41709;52.536;5.688;2024-01-06T10:08:58;12.13;;;7.43;;
55784;SDS011;41709;52.536;5.688;2024-01-06T10:11:24;11.20;;;7.15;;
55784;SDS011;41709;52.536;5.688;2024-01-06T10:13:51;10.45;;;7.57;;
55784;SDS011;41709;52.536;5.688;2024-01-06T10:16:17;11.75;;;8.07;;
55784;SDS011;41709;52.536;5.688;2024-01-06T10:18:44;23.48;;;8.00;;
55784;SDS011;41709;52.536;5.688;2024-01-06T10:21:10;13.38;;;8.00;;
55784;SDS011;41709;52.536;5.688;2024-01-06T10:23:36;11.60;;;8.15;;
55784;SDS011;41709;52.536;5.688;2024-01-06T10:26:01;11.18;;;8.35;;
55784;SDS011;41709;52.536;5.688;2024-01-06T10:28:28;10.57;;;7.72;;
55784;SDS011;41709;52.536;5.688;2024-01-06T10:30:54;15.88;;;8.18;;
55784;SDS011;41709;52.536;5.688;2024-01-06T10:33:21;11.73;;;7.80;;
55784;SDS011;41709;52.536;5.688;2024-01-06T10:35:48;11.77;;;7.40;;
55784;SDS011;41709;52.536;5.688;2024-01-06T10:38:14;13.07;;;7.45;;
55784;SDS011;41709;52.536;5.688;2024-01-06T10:40:55;12.82;;;7.45;;
55784;SDS011;41709;52.536;5.688;2024-01-06T10:43:31;11.60;;;6.95;;
55784;SDS011;41709;52.536;5.688;2024-01-06T10:46:03;9.52;;;7.47;;
55784;SDS011;41709;52.536;5.688;2024-01-06T10:48:32;11.50;;;7.63;;
55784;SDS011;41709;52.536;5.688;2024-01-06T10:51:00;13.55;;;8.40;;
55784;SDS011;41709;52.536;5.688;2024-01-06T10:53:27;9.30;;;7.20;;
55784;SDS011;41709;52.536;5.688;2024-01-06T10:55:53;14.63;;;7.47;;
55784;SDS011;41709;52.536;5.688;2024-01-06T10:58:18;8.98;;;7.57;;
55784;SDS011;41709;52.536;5.688;2024-01-06T11:00:45;11.18;;;7.82;;
55784;SDS011;41709;52.536;5.688;2024-01-06T11:03:11;11.52;;;7.55;;
55784;SDS011;41709;52.536;5.688;2024-01-06T11:05:38;9.80;;;7.68;;
55784;SDS011;41709;52.536;5.688;2024-01-06T11:08:06;10.85;;;7.68;;
55784;SDS011;41709;52.536;5.688;2024-01-06T11:10:32;11.70;;;7.93;;
55784;SDS011;41709;52.536;5.688;2024-01-06T11:13:21;11.68;;;7.57;;
55784;SDS011;41709;52.536;5.688;2024-01-06T11:15:49;13.63;;;7.82;;
55784;SDS011;41709;52.536;5.688;2024-01-06T11:26:49;15.93;;;9.15;;
55784;SDS011;41709;52.536;5.688;2024-01-06T11:29:16;10.32;;;8.38;;
55784;SDS011;41709;52.536;5.688;2024-01-06T11:31:44;14.32;;;9.32;;
55784;SDS011;41709;52.536;5.688;2024-01-06T11:34:52;13.77;;;9.27;;
55784;SDS011;41709;52.536;5.688;2024-01-06T11:37:23;14.02;;;8.95;;
55784;SDS011;41709;52.536;5.688;2024-01-06T11:42:45;13.90;;;10.00;;
55784;SDS011;41709;52.536;5.688;2024-01-06T11:45:32;11.88;;;9.30;;
55784;SDS011;41709;52.536;5.688;2024-01-06T11:48:02;13.15;;;9.73;;
55784;SDS011;41709;52.536;5.688;2024-01-06T11:50:35;12.73;;;8.60;;
55784;SDS011;41709;52.536;5.688;2024-01-06T11:53:03;11.63;;;8.90;;
55784;SDS011;41709;52.536;5.688;2024-01-06T11:55:29;12.27;;;9.50;;
55784;SDS011;41709;52.536;5.688;2024-01-06T11:57:59;12.25;;;8.82;;
55784;SDS011;41709;52.536;5.688;2024-01-06T12:00:29;12.95;;;8.73;;
55784;SDS011;41709;52.536;5.688;2024-01-06T12:02:55;12.07;;;8.73;;
55784;SDS011;41709;52.536;5.688;2024-01-06T12:05:22;12.55;;;8.23;;
55784;SDS011;41709;52.536;5.688;2024-01-06T12:07:59;12.40;;;8.00;;
55784;SDS011;41709;52.536;5.688;2024-01-06T12:10:27;13.20;;;8.65;;
55784;SDS011;41709;52.536;5.688;2024-01-06T12:15:26;15.02;;;9.05;;
55784;SDS011;41709;52.536;5.688;2024-01-06T12:17:52;11.95;;;8.13;;
55784;SDS011;41709;52.536;5.688;2024-01-06T12:20:17;13.25;;;9.43;;
55784;SDS011;41709;52.536;5.688;2024-01-06T12:22:43;13.50;;;8.43;;
55784;SDS011;41709;52.536;5.688;2024-01-06T12:25:09;12.15;;;8.55;;
55784;SDS011;41709;52.536;5.688;2024-01-06T12:27:35;15.15;;;9.63;;
55784;SDS011;41709;52.536;5.688;2024-01-06T12:30:01;13.05;;;7.97;;
55784;SDS011;41709;52.536;5.688;2024-01-06T12:32:27;12.75;;;8.32;;
55784;SDS011;41709;52.536;5.688;2024-01-06T12:34:53;12.40;;;8.55;;
55784;SDS011;41709;52.536;5.688;2024-01-06T12:37:20;13.95;;;8.25;;
55784;SDS011;41709;52.536;5.688;2024-01-06T12:39:48;15.70;;;9.15;;
55784;SDS011;41709;52.536;5.688;2024-01-06T12:42:15;13.98;;;8.55;;
55784;SDS011;41709;52.536;5.688;2024-01-06T12:44:41;9.32;;;7.03;;
55784;SDS011;41709;52.536;5.688;2024-01-06T12:47:07;9.32;;;7.05;;
55784;SDS011;41709;52.536;5.688;2024-01-06T12:49:33;8.55;;;6.57;;
55784;SDS011;41709;52.536;5.688;2024-01-06T12:51:58;11.13;;;7.25;;
55784;SDS011;41709;52.536;5.688;2024-01-06T12:54:24;8.25;;;6.35;;
55784;SDS011;41709;52.536;5.688;2024-01-06T12:56:49;9.18;;;6.07;;
55784;SDS011;41709;52.536;5.688;2024-01-06T12:59:15;9.13;;;6.85;;
55784;SDS011;41709;52.536;5.688;2024-01-06T13:01:41;9.23;;;6.47;;
55784;SDS011;41709;52.536;5.688;2024-01-06T13:04:07;8.25;;;6.40;;
55784;SDS011;41709;52.536;5.688;2024-01-06T13:06:33;9.27;;;5.88;;
55784;SDS011;41709;52.536;5.688;2024-01-06T13:08:59;8.52;;;6.32;;
55784;SDS011;41709;52.536;5.688;2024-01-06T13:11:27;9.68;;;6.72;;
55784;SDS011;41709;52.536;5.688;2024-01-06T13:13:53;12.73;;;6.80;;
55784;SDS011;41709;52.536;5.688;2024-01-06T13:16:18;11.63;;;7.78;;
55784;SDS011;41709;52.536;5.688;2024-01-06T13:18:44;11.05;;;6.72;;
55784;SDS011;41709;52.536;5.688;2024-01-06T13:21:09;10.25;;;6.70;;
55784;SDS011;41709;52.536;5.688;2024-01-06T13:23:35;10.95;;;7.47;;
55784;SDS011;41709;52.536;5.688;2024-01-06T13:26:01;11.45;;;7.65;;
55784;SDS011;41709;52.536;5.688;2024-01-06T13:28:26;11.63;;;7.63;;
55784;SDS011;41709;52.536;5.688;2024-01-06T13:30:52;13.35;;;8.55;;
55784;SDS011;41709;52.536;5.688;2024-01-06T13:33:18;12.32;;;7.70;;
55784;SDS011;41709;52.536;5.688;2024-01-06T13:35:44;12.13;;;8.00;;
55784;SDS011;41709;52.536;5.688;2024-01-06T13:38:09;12.43;;;9.07;;
55784;SDS011;41709;52.536;5.688;2024-01-06T13:40:35;13.02;;;8.10;;
55784;SDS011;41709;52.536;5.688;2024-01-06T13:43:01;12.50;;;8.68;;
55784;SDS011;41709;52.536;5.688;2024-01-06T13:45:29;15.05;;;8.55;;
55784;SDS011;41709;52.536;5.688;2024-01-06T13:47:55;13.68;;;8.90;;
55784;SDS011;41709;52.536;5.688;2024-01-06T13:50:21;13.02;;;9.30;;
55784;SDS011;41709;52.536;5.688;2024-01-06T13:52:46;11.20;;;8.45;;
55784;SDS011;41709;52.536;5.688;2024-01-06T13:55:13;14.88;;;9.43;;
55784;SDS011;41709;52.536;5.688;2024-01-06T13:57:38;14.80;;;8.63;;
55784;SDS011;41709;52.536;5.688;2024-01-06T14:00:09;16.13;;;9.27;;
55784;SDS011;41709;52.536;5.688;2024-01-06T14:02:36;16.30;;;9.98;;
55784;SDS011;41709;52.536;5.688;2024-01-06T14:05:03;13.48;;;9.02;;
55784;SDS011;41709;52.536;5.688;2024-01-06T14:07:29;11.07;;;8.23;;
55784;SDS011;41709;52.536;5.688;2024-01-06T14:09:55;9.52;;;7.65;;
55784;SDS011;41709;52.536;5.688;2024-01-06T14:12:20;10.93;;;7.30;;
55784;SDS011;41709;52.536;5.688;2024-01-06T14:14:46;11.07;;;7.22;;
55784;SDS011;41709;52.536;5.688;2024-01-06T14:17:11;9.75;;;7.07;;
55784;SDS011;41709;52.536;5.688;2024-01-06T14:19:37;11.52;;;7.45;;
55784;SDS011;41709;52.536;5.688;2024-01-06T14:22:03;11.80;;;7.13;;
55784;SDS011;41709;52.536;5.688;2024-01-06T14:24:31;10.45;;;7.35;;
55784;SDS011;41709;52.536;5.688;2024-01-06T14:26:56;10.27;;;6.85;;
55784;SDS011;41709;52.536;5.688;2024-01-06T14:29:22;9.50;;;6.78;;
55784;SDS011;41709;52.536;5.688;2024-01-06T14:31:48;9.90;;;6.45;;
55784;SDS011;41709;52.536;5.688;2024-01-06T14:34:13;11.32;;;6.85;;
55784;SDS011;41709;52.536;5.688;2024-01-06T14:36:39;10.40;;;7.78;;
55784;SDS011;41709;52.536;5.688;2024-01-06T14:39:12;12.73;;;7.93;;
55784;SDS011;41709;52.536;5.688;2024-01-06T14:44:07;10.32;;;7.80;;
55784;SDS011;41709;52.536;5.688;2024-01-06T14:46:34;10.55;;;7.68;;